page 5346 of 1003898 registered users

eBook PostsUsers

  1. 0lunge01circle registered @ 2013-01-10 13:34:48, last login @ 2013-01-10 13:34:48
  2. 0cactushyena9 registered @ 2013-01-10 13:35:06, last login @ 2013-01-10 13:35:06
  3. 0jellyscene5 registered @ 2013-01-10 13:36:24, last login @ 2013-01-10 13:36:24
  4. 0gamecocoa1 registered @ 2013-01-10 13:38:16, last login @ 2013-01-10 13:38:16
  5. 0archoffice04 registered @ 2013-01-10 13:38:37, last login @ 2013-01-10 13:38:37
  6. 0clothpvc9 registered @ 2013-01-10 13:38:42, last login @ 2013-01-10 13:38:42
  7. 0cent07report registered @ 2013-01-10 13:39:20, last login @ 2013-01-10 13:39:20
  8. 0whalesupply9 registered @ 2013-01-10 13:39:24, last login @ 2013-01-10 13:39:24
  9. 0plotquince3 registered @ 2013-01-10 13:39:35, last login @ 2013-01-10 13:39:35
  10. 0branchdollar6 registered @ 2013-01-10 13:39:46, last login @ 2013-01-10 13:39:46
  11. 0lauraagenda3 registered @ 2013-01-10 13:39:46, last login @ 2013-01-10 13:39:46
  12. 0systemcrack70 registered @ 2013-01-10 13:39:48, last login @ 2013-01-10 13:39:48
  13. 0cavesanta92 registered @ 2013-01-10 13:40:25, last login @ 2013-01-10 13:40:25
  14. 0net22dew registered @ 2013-01-10 13:42:01, last login @ 2013-01-10 13:42:01
  15. 0vise3flower registered @ 2013-01-10 13:42:31, last login @ 2013-01-10 13:42:31
  16. 0yokestick45 registered @ 2013-01-10 13:42:37, last login @ 2013-01-10 13:42:37
  17. 0hubprofit17 registered @ 2013-01-10 13:42:41, last login @ 2013-01-10 13:42:41
  18. 0pocket7mom registered @ 2013-01-10 13:42:42, last login @ 2013-01-10 13:42:42
  19. 0ear7chess registered @ 2013-01-10 13:42:43, last login @ 2013-01-10 13:42:43
  20. 0shield0gear registered @ 2013-01-10 13:43:49, last login @ 2013-01-10 13:43:49
  21. 0narin2013 registered @ 2013-01-10 13:45:23, last login @ 2013-01-10 13:45:23
  22. 0law6latex registered @ 2013-01-10 13:45:45, last login @ 2013-01-10 13:45:45
  23. 0hoselamp6 registered @ 2013-01-10 13:46:08, last login @ 2013-01-10 13:46:08
  24. 0legbush7 registered @ 2013-01-10 13:46:17, last login @ 2013-01-10 13:46:17
  25. 0helendixon registered @ 2013-01-10 13:46:23, last login @ 2013-01-10 13:46:23
  26. 0july04sampan registered @ 2013-01-10 13:46:31, last login @ 2013-01-10 13:46:31
  27. 0rabbitpatch23 registered @ 2013-01-10 13:46:38, last login @ 2013-01-10 13:55:21
  28. 0grape5bed registered @ 2013-01-10 13:47:00, last login @ 2013-01-10 13:47:00
  29. 0priestfreeze7 registered @ 2013-01-10 13:47:19, last login @ 2013-01-10 13:47:19
  30. 0wrist3cup registered @ 2013-01-10 13:48:29, last login @ 2013-01-10 13:48:29
  31. 0mice3ball registered @ 2013-01-10 13:49:43, last login @ 2013-01-10 13:49:43
  32. 0bed6tramp registered @ 2013-01-10 13:50:59, last login @ 2013-01-10 13:50:59
  33. 0warthread90 registered @ 2013-01-10 13:51:31, last login @ 2013-01-10 13:51:31
  34. 0studychalk3 registered @ 2013-01-10 13:51:34, last login @ 2013-01-10 13:51:34
  35. 0chin60report registered @ 2013-01-10 13:51:46, last login @ 2013-01-10 13:51:46
  36. 0raftanime35 registered @ 2013-01-10 13:52:45, last login @ 2013-01-10 13:52:45
  37. 0level8bush registered @ 2013-01-10 13:55:52, last login @ 2013-01-10 13:55:52
  38. 0plain54find registered @ 2013-01-10 13:56:11, last login @ 2013-01-10 13:56:11
  39. 0lift18cancer registered @ 2013-01-10 13:56:21, last login @ 2013-01-10 13:56:21
  40. 0warmguide8 registered @ 2013-01-10 13:57:54, last login @ 2013-01-10 13:57:54
  41. 0frenchfender32 registered @ 2013-01-10 13:58:53, last login @ 2013-01-10 13:58:53
  42. 0violasystem0 registered @ 2013-01-10 13:59:17, last login @ 2013-01-10 13:59:17
  43. 0mondaybeetle0 registered @ 2013-01-10 13:59:28, last login @ 2013-01-10 13:59:28
  44. 0childcloset43 registered @ 2013-01-10 14:00:50, last login @ 2013-01-10 14:00:50
  45. 0maracaself8 registered @ 2013-01-10 14:02:05, last login @ 2013-01-10 14:02:05
  46. 0wheelpatch13 registered @ 2013-01-10 14:03:12, last login @ 2013-01-10 14:03:12
  47. 0orchid0emery registered @ 2013-01-10 14:03:40, last login @ 2013-01-10 14:03:40
  48. 0tile77rugby registered @ 2013-01-10 14:03:55, last login @ 2013-01-10 14:03:55
  49. 0rice5feast registered @ 2013-01-10 14:03:55, last login @ 2013-01-10 14:03:55
  50. 0Faimut registered @ 2013-01-10 14:04:00, last login @ 2013-01-10 14:04:00
  51. 0jarfur7 registered @ 2013-01-10 14:05:41, last login @ 2013-01-10 14:05:41
  52. 0dime15earth registered @ 2013-01-10 14:05:54, last login @ 2013-01-10 14:41:54
  53. 0museum458 registered @ 2013-01-10 14:06:02, last login @ 2013-01-10 14:06:02
  54. 0shade5trip registered @ 2013-01-10 14:06:33, last login @ 2013-01-10 14:06:33
  55. 0titlefeet2 registered @ 2013-01-10 14:06:43, last login @ 2013-01-10 14:06:43
  56. 0carphealth1 registered @ 2013-01-10 14:06:58, last login @ 2013-01-10 14:47:23
  57. 0coal5purple registered @ 2013-01-10 14:07:34, last login @ 2013-01-10 14:07:34
  58. 0nepaltemper18 registered @ 2013-01-10 14:07:46, last login @ 2013-01-10 14:07:46
  59. 0casejumper50 registered @ 2013-01-10 14:10:23, last login @ 2013-01-10 14:10:23
  60. 0insectlimit2 registered @ 2013-01-10 14:10:45, last login @ 2013-01-10 14:10:45
  61. 0gum3place registered @ 2013-01-10 14:11:31, last login @ 2013-01-10 14:52:43
  62. 0cap0blade registered @ 2013-01-10 14:11:35, last login @ 2013-01-10 14:11:35
  63. 0time3eggnog registered @ 2013-01-10 14:11:47, last login @ 2013-01-10 14:11:47
  64. 0marchmelody3 registered @ 2013-01-10 14:12:04, last login @ 2013-01-10 14:12:04
  65. 0sheet46face registered @ 2013-01-10 14:12:55, last login @ 2013-01-10 14:12:55
  66. 0lyre68order registered @ 2013-01-10 14:12:55, last login @ 2013-01-10 14:50:45
  67. 0mondayback98 registered @ 2013-01-10 14:12:59, last login @ 2013-01-10 14:12:59
  68. 0jeff14cell registered @ 2013-01-10 14:13:06, last login @ 2013-01-10 14:13:06
  69. 0mice6fish registered @ 2013-01-10 14:14:03, last login @ 2013-01-10 14:14:03
  70. 0grainlamp2 registered @ 2013-01-10 14:14:04, last login @ 2013-01-10 14:14:04
  71. 0tiphouse9 registered @ 2013-01-10 14:15:09, last login @ 2013-01-10 14:15:09
  72. 0cannon4sugar registered @ 2013-01-10 14:15:20, last login @ 2013-01-10 14:15:20
  73. 0seal5seed registered @ 2013-01-10 14:16:16, last login @ 2013-01-10 14:16:16
  74. 0lossdriver5 registered @ 2013-01-10 14:17:52, last login @ 2013-01-10 14:17:52
  75. 0btzehnpjck registered @ 2013-01-10 14:18:46, last login @ 2013-01-10 14:18:46
  76. 0pathjeans21 registered @ 2013-01-10 14:18:50, last login @ 2013-01-10 14:18:50
  77. 0cheruchan registered @ 2013-01-10 14:19:27, last login @ 2013-01-10 14:19:27
  78. 0akvqwwbbe registered @ 2013-01-10 14:19:30, last login @ 2013-01-10 14:19:30
  79. 0sugarcamera2 registered @ 2013-01-10 14:19:45, last login @ 2013-01-10 14:19:45
  80. 0pair0page registered @ 2013-01-10 14:21:52, last login @ 2013-01-10 14:21:52
  81. 0pumaplot2 registered @ 2013-01-10 14:22:09, last login @ 2013-01-10 14:22:09
  82. 0okraerror33 registered @ 2013-01-10 14:22:15, last login @ 2013-01-10 14:22:15
  83. 0swim57sleep registered @ 2013-01-10 14:22:51, last login @ 2013-01-10 14:22:51
  84. 0dry22detail registered @ 2013-01-10 14:23:31, last login @ 2013-01-10 14:23:31
  85. 0daisy95scene registered @ 2013-01-10 14:23:58, last login @ 2013-01-10 14:23:58
  86. 0steelstage6 registered @ 2013-01-10 14:24:10, last login @ 2013-01-10 14:24:10
  87. 0sponge3spruce registered @ 2013-01-10 14:24:30, last login @ 2013-01-10 14:24:30
  88. 0eaglefan96 registered @ 2013-01-10 14:24:32, last login @ 2013-01-10 14:24:32
  89. 0eagle58niece registered @ 2013-01-10 14:25:02, last login @ 2013-01-10 14:25:02
  90. 0vasejaguar1 registered @ 2013-01-10 14:25:34, last login @ 2013-01-10 14:25:34
  91. 0basketbean0 registered @ 2013-01-10 14:26:17, last login @ 2013-01-10 14:26:17
  92. 0ojyltiumy registered @ 2013-01-10 14:26:25, last login @ 2013-01-10 14:26:25
  93. 0unit78cinema registered @ 2013-01-10 14:27:49, last login @ 2013-01-10 14:27:49
  94. 0badgelier5 registered @ 2013-01-10 14:28:48, last login @ 2013-01-10 14:28:48
  95. 0lampbrandy90 registered @ 2013-01-10 14:29:15, last login @ 2013-01-10 14:29:15
  96. 0dead5pear registered @ 2013-01-10 14:30:40, last login @ 2013-01-10 14:47:02
  97. 0sugar14voice registered @ 2013-01-10 14:31:39, last login @ 2013-01-10 14:31:39
  98. 0novel2judo registered @ 2013-01-10 14:32:32, last login @ 2013-01-10 14:32:32
  99. 0awixmlcwg44 registered @ 2013-01-10 14:35:24, last login @ 2013-01-10 14:35:24
  100. 0violetstart90 registered @ 2013-01-10 14:36:07, last login @ 2013-01-10 14:36:07
  101. 0bacon0shape registered @ 2013-01-10 14:37:12, last login @ 2013-01-10 14:44:40

More...

[5356] [5355] [5354] [5353] [5352] [5351] [5350] [5349] [5348] [5347] [5346] [5345] [5344] [5343] [5342] [5341] [5340] [5339] [5338] [5337] ...[1]
Back to Top